sensor_id;sensor_type;location;lat;lon;timestamp;pressure;altitude;pressure_sealevel;temperature;humidity
30724;BME280;17473;52.286;20.930;2023-02-16T00:00:24;101181.25;;;3.21;87.92
30724;BME280;17473;52.286;20.930;2023-02-16T00:02:52;101189.44;;;3.25;87.77
30724;BME280;17473;52.286;20.930;2023-02-16T00:05:28;101188.19;;;3.20;87.89
30724;BME280;17473;52.286;20.930;2023-02-16T00:07:57;101191.00;;;3.23;87.96
30724;BME280;17473;52.286;20.930;2023-02-16T00:10:30;101182.38;;;3.24;87.47
30724;BME280;17473;52.286;20.930;2023-02-16T00:12:58;101185.69;;;3.22;87.69
30724;BME280;17473;52.286;20.930;2023-02-16T00:15:44;101179.69;;;3.23;87.25
30724;BME280;17473;52.286;20.930;2023-02-16T00:18:18;101168.63;;;3.15;87.58
30724;BME280;17473;52.286;20.930;2023-02-16T00:20:49;101163.78;;;3.20;87.45
30724;BME280;17473;52.286;20.930;2023-02-16T00:23:16;101152.97;;;3.15;87.32
30724;BME280;17473;52.286;20.930;2023-02-16T00:25:43;101154.34;;;3.10;87.60
30724;BME280;17473;52.286;20.930;2023-02-16T00:28:16;101150.81;;;3.09;87.55
30724;BME280;17473;52.286;20.930;2023-02-16T00:30:44;101148.53;;;3.14;87.49
30724;BME280;17473;52.286;20.930;2023-02-16T00:33:18;101148.88;;;3.07;87.55
30724;BME280;17473;52.286;20.930;2023-02-16T00:35:46;101135.63;;;3.04;88.03
30724;BME280;17473;52.286;20.930;2023-02-16T00:38:13;101135.38;;;3.01;88.15
30724;BME280;17473;52.286;20.930;2023-02-16T00:40:41;101133.81;;;3.03;87.88
30724;BME280;17473;52.286;20.930;2023-02-16T00:43:25;101126.50;;;2.98;87.90
30724;BME280;17473;52.286;20.930;2023-02-16T00:45:54;101124.50;;;3.06;87.52
30724;BME280;17473;52.286;20.930;2023-02-16T00:48:23;101133.47;;;3.10;87.47
30724;BME280;17473;52.286;20.930;2023-02-16T00:50:50;101132.53;;;3.09;87.64
30724;BME280;17473;52.286;20.930;2023-02-16T00:53:17;101119.81;;;3.02;87.72
30724;BME280;17473;52.286;20.930;2023-02-16T00:55:44;101128.59;;;3.15;87.39
30724;BME280;17473;52.286;20.930;2023-02-16T00:58:18;101121.22;;;3.09;87.08
30724;BME280;17473;52.286;20.930;2023-02-16T01:00:57;101128.16;;;3.20;86.60
30724;BME280;17473;52.286;20.930;2023-02-16T01:03:28;101115.09;;;3.08;86.80
30724;BME280;17473;52.286;20.930;2023-02-16T01:05:55;101115.88;;;3.07;86.98
30724;BME280;17473;52.286;20.930;2023-02-16T01:08:48;101116.88;;;3.09;87.06
30724;BME280;17473;52.286;20.930;2023-02-16T01:11:51;101115.09;;;3.20;86.31
30724;BME280;17473;52.286;20.930;2023-02-16T01:14:18;101117.38;;;3.16;86.41
30724;BME280;17473;52.286;20.930;2023-02-16T01:16:45;101109.28;;;3.12;86.66
30724;BME280;17473;52.286;20.930;2023-02-16T01:19:12;101100.44;;;3.10;86.70
30724;BME280;17473;52.286;20.930;2023-02-16T01:21:40;101105.09;;;3.15;86.69
30724;BME280;17473;52.286;20.930;2023-02-16T01:24:07;101103.38;;;3.15;86.08
30724;BME280;17473;52.286;20.930;2023-02-16T01:26:39;101105.66;;;3.10;86.75
30724;BME280;17473;52.286;20.930;2023-02-16T01:29:14;101093.28;;;3.08;87.14
30724;BME280;17473;52.286;20.930;2023-02-16T01:31:43;101097.50;;;3.18;86.61
30724;BME280;17473;52.286;20.930;2023-02-16T01:34:11;101092.41;;;3.07;87.00
30724;BME280;17473;52.286;20.930;2023-02-16T01:36:44;101089.34;;;3.13;86.79
30724;BME280;17473;52.286;20.930;2023-02-16T01:39:16;101083.88;;;3.10;86.91
30724;BME280;17473;52.286;20.930;2023-02-16T01:44:45;101077.72;;;3.09;86.80
30724;BME280;17473;52.286;20.930;2023-02-16T01:47:53;101080.81;;;3.16;86.56
30724;BME280;17473;52.286;20.930;2023-02-16T01:50:29;101078.41;;;3.07;86.65
30724;BME280;17473;52.286;20.930;2023-02-16T01:53:14;101069.78;;;2.96;87.08
30724;BME280;17473;52.286;20.930;2023-02-16T01:55:48;101066.28;;;2.95;87.26
30724;BME280;17473;52.286;20.930;2023-02-16T02:03:33;101060.47;;;2.88;86.94
30724;BME280;17473;52.286;20.930;2023-02-16T02:06:26;101050.75;;;2.97;86.78
30724;BME280;17473;52.286;20.930;2023-02-16T02:09:34;101057.28;;;2.92;86.81
30724;BME280;17473;52.286;20.930;2023-02-16T02:12:27;101056.84;;;2.97;86.62
30724;BME280;17473;52.286;20.930;2023-02-16T02:14:58;101066.03;;;2.92;86.75
30724;BME280;17473;52.286;20.930;2023-02-16T02:17:25;101061.63;;;2.91;86.94
30724;BME280;17473;52.286;20.930;2023-02-16T02:23:02;101058.47;;;2.95;86.23
30724;BME280;17473;52.286;20.930;2023-02-16T02:34:58;101043.78;;;2.86;86.47
30724;BME280;17473;52.286;20.930;2023-02-16T02:41:07;101035.06;;;2.85;86.57
30724;BME280;17473;52.286;20.930;2023-02-16T02:43:51;101033.38;;;2.86;86.47
30724;BME280;17473;52.286;20.930;2023-02-16T02:46:34;101028.38;;;2.77;86.62
30724;BME280;17473;52.286;20.930;2023-02-16T02:49:02;101025.63;;;2.87;85.93
30724;BME280;17473;52.286;20.930;2023-02-16T02:51:30;101024.28;;;2.80;86.00
30724;BME280;17473;52.286;20.930;2023-02-16T02:54:35;101021.91;;;2.84;85.84
30724;BME280;17473;52.286;20.930;2023-02-16T02:57:42;101022.81;;;2.84;85.84
30724;BME280;17473;52.286;20.930;2023-02-16T03:00:32;101012.38;;;2.84;85.51
30724;BME280;17473;52.286;20.930;2023-02-16T03:03:34;101004.09;;;2.78;85.96
30724;BME280;17473;52.286;20.930;2023-02-16T03:06:07;101005.69;;;2.76;85.79
30724;BME280;17473;52.286;20.930;2023-02-16T03:08:39;101003.72;;;2.61;86.38
30724;BME280;17473;52.286;20.930;2023-02-16T03:11:16;100996.25;;;2.66;86.34
30724;BME280;17473;52.286;20.930;2023-02-16T03:16:58;100982.84;;;2.61;86.28
30724;BME280;17473;52.286;20.930;2023-02-16T03:19:48;100974.03;;;2.59;86.41
30724;BME280;17473;52.286;20.930;2023-02-16T03:22:36;100972.88;;;2.56;86.13
30724;BME280;17473;52.286;20.930;2023-02-16T03:25:28;100983.78;;;2.50;86.67
30724;BME280;17473;52.286;20.930;2023-02-16T03:28:18;100988.75;;;2.59;86.13
30724;BME280;17473;52.286;20.930;2023-02-16T03:31:07;100983.34;;;2.68;85.74
30724;BME280;17473;52.286;20.930;2023-02-16T03:33:36;100970.50;;;2.59;85.70
30724;BME280;17473;52.286;20.930;2023-02-16T03:36:04;100988.31;;;2.53;86.23
30724;BME280;17473;52.286;20.930;2023-02-16T03:38:33;100980.34;;;2.51;86.25
30724;BME280;17473;52.286;20.930;2023-02-16T03:41:01;100980.91;;;2.47;86.27
30724;BME280;17473;52.286;20.930;2023-02-16T03:43:30;100979.09;;;2.46;86.52
30724;BME280;17473;52.286;20.930;2023-02-16T03:45:57;100975.03;;;2.49;86.31
30724;BME280;17473;52.286;20.930;2023-02-16T03:48:24;100961.09;;;2.61;85.92
30724;BME280;17473;52.286;20.930;2023-02-16T03:50:51;100952.34;;;2.48;86.14
30724;BME280;17473;52.286;20.930;2023-02-16T03:53:18;100948.75;;;2.46;86.22
30724;BME280;17473;52.286;20.930;2023-02-16T03:55:47;100947.91;;;2.47;86.38
30724;BME280;17473;52.286;20.930;2023-02-16T03:58:21;100947.13;;;2.37;86.64
30724;BME280;17473;52.286;20.930;2023-02-16T04:00:50;100939.31;;;2.48;86.45
30724;BME280;17473;52.286;20.930;2023-02-16T04:03:18;100954.03;;;2.36;86.67
30724;BME280;17473;52.286;20.930;2023-02-16T04:05:45;100951.19;;;2.33;86.98
30724;BME280;17473;52.286;20.930;2023-02-16T04:08:12;100943.97;;;2.41;86.77
30724;BME280;17473;52.286;20.930;2023-02-16T04:10:39;100951.63;;;2.27;87.29
30724;BME280;17473;52.286;20.930;2023-02-16T04:13:06;100942.13;;;2.28;87.11
30724;BME280;17473;52.286;20.930;2023-02-16T04:15:34;100938.16;;;2.33;87.02
30724;BME280;17473;52.286;20.930;2023-02-16T04:18:01;100939.31;;;2.37;86.41
30724;BME280;17473;52.286;20.930;2023-02-16T04:20:32;100933.28;;;2.26;86.78
30724;BME280;17473;52.286;20.930;2023-02-16T04:23:00;100934.06;;;2.25;87.10
30724;BME280;17473;52.286;20.930;2023-02-16T04:25:28;100933.19;;;2.36;86.54
30724;BME280;17473;52.286;20.930;2023-02-16T04:27:55;100926.34;;;2.26;86.91
30724;BME280;17473;52.286;20.930;2023-02-16T04:30:26;100929.09;;;2.28;86.65
30724;BME280;17473;52.286;20.930;2023-02-16T04:32:54;100930.09;;;2.30;86.78
30724;BME280;17473;52.286;20.930;2023-02-16T04:35:22;100922.97;;;2.27;86.84
30724;BME280;17473;52.286;20.930;2023-02-16T04:37:49;100928.75;;;2.23;86.92
30724;BME280;17473;52.286;20.930;2023-02-16T04:40:17;100926.94;;;2.22;86.99
30724;BME280;17473;52.286;20.930;2023-02-16T04:42:44;100922.41;;;2.19;86.99
30724;BME280;17473;52.286;20.930;2023-02-16T04:45:12;100928.50;;;2.20;87.08
30724;BME280;17473;52.286;20.930;2023-02-16T04:47:40;100930.31;;;2.21;86.78
30724;BME280;17473;52.286;20.930;2023-02-16T04:50:07;100934.50;;;2.19;86.85
30724;BME280;17473;52.286;20.930;2023-02-16T04:52:35;100934.06;;;2.25;86.73
30724;BME280;17473;52.286;20.930;2023-02-16T04:55:04;100928.06;;;2.14;86.92
30724;BME280;17473;52.286;20.930;2023-02-16T04:57:32;100934.41;;;2.17;87.02
30724;BME280;17473;52.286;20.930;2023-02-16T04:59:59;100929.53;;;2.22;86.64
30724;BME280;17473;52.286;20.930;2023-02-16T05:02:26;100934.50;;;2.19;86.62
30724;BME280;17473;52.286;20.930;2023-02-16T05:04:53;100924.53;;;2.25;86.59
30724;BME280;17473;52.286;20.930;2023-02-16T05:07:20;100911.66;;;2.27;86.30
30724;BME280;17473;52.286;20.930;2023-02-16T05:09:47;100914.59;;;2.19;86.66
30724;BME280;17473;52.286;20.930;2023-02-16T05:12:14;100931.22;;;2.22;86.45
30724;BME280;17473;52.286;20.930;2023-02-16T05:15:00;100916.63;;;2.24;86.52
30724;BME280;17473;52.286;20.930;2023-02-16T05:17:27;100912.41;;;2.14;86.69
30724;BME280;17473;52.286;20.930;2023-02-16T05:19:58;100904.47;;;2.12;86.91
30724;BME280;17473;52.286;20.930;2023-02-16T05:22:26;100906.53;;;2.16;86.69
30724;BME280;17473;52.286;20.930;2023-02-16T05:24:54;100911.94;;;2.08;86.94
30724;BME280;17473;52.286;20.930;2023-02-16T05:27:28;100911.72;;;2.05;87.08
30724;BME280;17473;52.286;20.930;2023-02-16T05:29:56;100911.94;;;2.08;87.29
30724;BME280;17473;52.286;20.930;2023-02-16T05:32:24;100914.00;;;2.12;86.81
30724;BME280;17473;52.286;20.930;2023-02-16T05:34:52;100911.75;;;2.16;86.74
30724;BME280;17473;52.286;20.930;2023-02-16T05:37:19;100906.28;;;2.13;87.18
30724;BME280;17473;52.286;20.930;2023-02-16T05:39:46;100904.59;;;2.14;86.73
30724;BME280;17473;52.286;20.930;2023-02-16T05:42:13;100898.34;;;2.12;86.60
30724;BME280;17473;52.286;20.930;2023-02-16T05:44:40;100908.88;;;2.13;86.68
30724;BME280;17473;52.286;20.930;2023-02-16T05:47:07;100912.19;;;2.11;86.98
30724;BME280;17473;52.286;20.930;2023-02-16T05:49:34;100906.97;;;2.11;87.11
30724;BME280;17473;52.286;20.930;2023-02-16T05:52:02;100905.81;;;2.07;86.99
30724;BME280;17473;52.286;20.930;2023-02-16T05:54:29;100894.47;;;2.07;86.86
30724;BME280;17473;52.286;20.930;2023-02-16T05:56:56;100886.13;;;2.11;86.71
30724;BME280;17473;52.286;20.930;2023-02-16T05:59:23;100886.91;;;2.22;86.59
30724;BME280;17473;52.286;20.930;2023-02-16T06:01:50;100888.63;;;2.21;86.25
30724;BME280;17473;52.286;20.930;2023-02-16T06:04:19;100903.34;;;2.21;86.22
30724;BME280;17473;52.286;20.930;2023-02-16T06:06:47;100898.81;;;2.18;86.35
30724;BME280;17473;52.286;20.930;2023-02-16T06:09:14;100916.38;;;2.21;86.31
30724;BME280;17473;52.286;20.930;2023-02-16T06:11:41;100901.88;;;2.24;86.03
30724;BME280;17473;52.286;20.930;2023-02-16T06:14:18;100898.53;;;2.37;86.18
30724;BME280;17473;52.286;20.930;2023-02-16T06:16:48;100887.16;;;2.37;85.47
30724;BME280;17473;52.286;20.930;2023-02-16T06:19:18;100895.22;;;2.40;85.32
30724;BME280;17473;52.286;20.930;2023-02-16T06:21:46;100898.03;;;2.43;85.43
30724;BME280;17473;52.286;20.930;2023-02-16T06:24:13;100900.00;;;2.57;84.97
30724;BME280;17473;52.286;20.930;2023-02-16T06:26:40;100891.59;;;2.73;84.41
30724;BME280;17473;52.286;20.930;2023-02-16T06:29:08;100885.00;;;2.78;83.95
30724;BME280;17473;52.286;20.930;2023-02-16T06:31:35;100883.88;;;2.87;83.41
30724;BME280;17473;52.286;20.930;2023-02-16T06:34:03;100884.63;;;2.97;82.74
30724;BME280;17473;52.286;20.930;2023-02-16T06:36:31;100881.34;;;3.12;82.33
30724;BME280;17473;52.286;20.930;2023-02-16T06:38:59;100880.19;;;3.20;81.77
30724;BME280;17473;52.286;20.930;2023-02-16T06:41:26;100881.41;;;3.25;81.29
30724;BME280;17473;52.286;20.930;2023-02-16T06:44:13;100888.28;;;3.37;80.65
30724;BME280;17473;52.286;20.930;2023-02-16T06:46:42;100889.97;;;3.48;80.15
30724;BME280;17473;52.286;20.930;2023-02-16T06:49:16;100880.81;;;3.67;79.41
30724;BME280;17473;52.286;20.930;2023-02-16T06:51:45;100893.09;;;3.81;78.81
30724;BME280;17473;52.286;20.930;2023-02-16T06:54:14;100885.91;;;3.90;77.97
30724;BME280;17473;52.286;20.930;2023-02-16T06:56:42;100889.25;;;4.01;77.53
30724;BME280;17473;52.286;20.930;2023-02-16T06:59:11;100886.38;;;4.10;76.91
30724;BME280;17473;52.286;20.930;2023-02-16T07:01:38;100881.16;;;4.23;76.65
30724;BME280;17473;52.286;20.930;2023-02-16T07:04:07;100890.66;;;4.62;75.25
30724;BME280;17473;52.286;20.930;2023-02-16T07:06:34;100889.63;;;5.00;73.91
30724;BME280;17473;52.286;20.930;2023-02-16T07:09:02;100883.75;;;5.46;71.75
30724;BME280;17473;52.286;20.930;2023-02-16T07:11:29;100881.41;;;5.64;70.53
30724;BME280;17473;52.286;20.930;2023-02-16T07:13:57;100873.69;;;6.10;69.01
30724;BME280;17473;52.286;20.930;2023-02-16T07:16:24;100876.84;;;6.80;66.69
30724;BME280;17473;52.286;20.930;2023-02-16T07:18:51;100877.34;;;7.20;64.79
30724;BME280;17473;52.286;20.930;2023-02-16T07:21:18;100880.41;;;7.45;63.73
30724;BME280;17473;52.286;20.930;2023-02-16T07:23:45;100881.81;;;7.71;62.66
30724;BME280;17473;52.286;20.930;2023-02-16T07:26:13;100884.69;;;8.27;60.81
30724;BME280;17473;52.286;20.930;2023-02-16T07:28:41;100877.53;;;8.59;59.34
30724;BME280;17473;52.286;20.930;2023-02-16T07:31:12;100880.78;;;8.71;58.78
30724;BME280;17473;52.286;20.930;2023-02-16T07:33:40;100867.91;;;8.77;58.42
30724;BME280;17473;52.286;20.930;2023-02-16T07:36:08;100863.38;;;8.93;58.05
30724;BME280;17473;52.286;20.930;2023-02-16T07:38:37;100860.78;;;8.75;58.08
30724;BME280;17473;52.286;20.930;2023-02-16T07:41:04;100866.69;;;8.71;58.29
30724;BME280;17473;52.286;20.930;2023-02-16T07:43:38;100861.97;;;8.64;58.23
30724;BME280;17473;52.286;20.930;2023-02-16T07:46:06;100858.75;;;8.51;58.75
30724;BME280;17473;52.286;20.930;2023-02-16T07:48:33;100858.59;;;8.48;59.12
30724;BME280;17473;52.286;20.930;2023-02-16T07:51:01;100857.28;;;8.40;59.09
30724;BME280;17473;52.286;20.930;2023-02-16T07:53:29;100860.91;;;8.60;58.25
30724;BME280;17473;52.286;20.930;2023-02-16T07:55:56;100857.88;;;8.88;57.75
30724;BME280;17473;52.286;20.930;2023-02-16T07:58:23;100865.47;;;9.18;57.07
30724;BME280;17473;52.286;20.930;2023-02-16T08:01:09;100860.56;;;9.26;56.73
30724;BME280;17473;52.286;20.930;2023-02-16T08:03:37;100864.38;;;9.33;56.29
30724;BME280;17473;52.286;20.930;2023-02-16T08:06:05;100860.84;;;9.52;55.71
30724;BME280;17473;52.286;20.930;2023-02-16T08:08:33;100853.41;;;10.02;54.95
30724;BME280;17473;52.286;20.930;2023-02-16T08:11:11;100848.75;;;9.96;54.58
30724;BME280;17473;52.286;20.930;2023-02-16T08:13:39;100839.25;;;10.21;53.56
30724;BME280;17473;52.286;20.930;2023-02-16T08:16:10;100836.03;;;10.28;53.27
30724;BME280;17473;52.286;20.930;2023-02-16T08:18:39;100841.56;;;10.77;52.39
30724;BME280;17473;52.286;20.930;2023-02-16T08:21:16;100836.88;;;10.92;52.10
30724;BME280;17473;52.286;20.930;2023-02-16T08:23:51;100836.09;;;10.95;51.65
30724;BME280;17473;52.286;20.930;2023-02-16T08:26:22;100839.53;;;11.15;51.07
30724;BME280;17473;52.286;20.930;2023-02-16T08:28:50;100850.56;;;11.27;50.56
30724;BME280;17473;52.286;20.930;2023-02-16T08:31:20;100850.38;;;11.70;50.02
30724;BME280;17473;52.286;20.930;2023-02-16T08:33:52;100841.03;;;11.80;49.45
30724;BME280;17473;52.286;20.930;2023-02-16T08:36:25;100859.16;;;11.93;48.77
30724;BME280;17473;52.286;20.930;2023-02-16T08:38:53;100846.44;;;12.59;48.26
30724;BME280;17473;52.286;20.930;2023-02-16T08:41:23;100850.97;;;12.63;47.25
30724;BME280;17473;52.286;20.930;2023-02-16T08:43:50;100844.09;;;12.68;46.73
30724;BME280;17473;52.286;20.930;2023-02-16T08:46:18;100842.88;;;12.58;47.06
30724;BME280;17473;52.286;20.930;2023-02-16T08:48:45;100836.88;;;12.36;47.25
30724;BME280;17473;52.286;20.930;2023-02-16T08:51:18;100835.81;;;12.86;46.84
30724;BME280;17473;52.286;20.930;2023-02-16T08:53:46;100834.97;;;12.60;46.64
30724;BME280;17473;52.286;20.930;2023-02-16T08:56:14;100837.75;;;12.64;46.55
30724;BME280;17473;52.286;20.930;2023-02-16T08:58:42;100825.31;;;12.62;46.29
30724;BME280;17473;52.286;20.930;2023-02-16T09:01:10;100834.34;;;12.67;46.47
30724;BME280;17473;52.286;20.930;2023-02-16T09:03:39;100829.63;;;12.86;46.23
30724;BME280;17473;52.286;20.930;2023-02-16T09:06:10;100825.16;;;13.13;45.68
30724;BME280;17473;52.286;20.930;2023-02-16T09:08:39;100821.50;;;13.10;45.08
30724;BME280;17473;52.286;20.930;2023-02-16T09:11:11;100825.78;;;13.34;44.61
30724;BME280;17473;52.286;20.930;2023-02-16T09:13:40;100830.25;;;13.65;44.43
30724;BME280;17473;52.286;20.930;2023-02-16T09:16:18;100825.59;;;13.90;43.79
30724;BME280;17473;52.286;20.930;2023-02-16T09:18:46;100829.81;;;14.15;43.14
30724;BME280;17473;52.286;20.930;2023-02-16T09:21:17;100824.88;;;14.66;42.50
30724;BME280;17473;52.286;20.930;2023-02-16T09:23:48;100829.81;;;14.87;41.77
30724;BME280;17473;52.286;20.930;2023-02-16T09:26:17;100822.47;;;15.13;41.54
30724;BME280;17473;52.286;20.930;2023-02-16T09:28:46;100826.47;;;15.36;40.95
30724;BME280;17473;52.286;20.930;2023-02-16T09:31:28;100816.41;;;15.21;40.67
30724;BME280;17473;52.286;20.930;2023-02-16T09:34:02;100828.88;;;15.25;40.25
30724;BME280;17473;52.286;20.930;2023-02-16T09:36:31;100831.91;;;15.40;40.51
30724;BME280;17473;52.286;20.930;2023-02-16T09:38:59;100829.59;;;15.16;40.26
30724;BME280;17473;52.286;20.930;2023-02-16T09:47:34;100828.63;;;15.12;40.28
30724;BME280;17473;52.286;20.930;2023-02-16T09:55:21;100822.34;;;15.52;39.23
30724;BME280;17473;52.286;20.930;2023-02-16T09:58:16;100825.47;;;15.30;39.51
30724;BME280;17473;52.286;20.930;2023-02-16T10:01:02;100837.34;;;15.46;39.51
30724;BME280;17473;52.286;20.930;2023-02-16T10:04:16;100818.50;;;15.81;38.98
30724;BME280;17473;52.286;20.930;2023-02-16T10:09:35;100812.19;;;16.22;38.27
30724;BME280;17473;52.286;20.930;2023-02-16T10:12:11;100817.19;;;16.56;37.78
30724;BME280;17473;52.286;20.930;2023-02-16T10:14:51;100804.34;;;16.30;37.93
30724;BME280;17473;52.286;20.930;2023-02-16T10:20:39;100816.34;;;16.58;37.33
30724;BME280;17473;52.286;20.930;2023-02-16T10:23:44;100809.22;;;16.59;37.56
30724;BME280;17473;52.286;20.930;2023-02-16T10:26:41;100806.66;;;16.65;37.75
30724;BME280;17473;52.286;20.930;2023-02-16T10:29:21;100806.91;;;16.81;37.52
30724;BME280;17473;52.286;20.930;2023-02-16T10:32:31;100800.25;;;17.12;36.61
30724;BME280;17473;52.286;20.930;2023-02-16T10:35:16;100803.94;;;17.20;36.15
30724;BME280;17473;52.286;20.930;2023-02-16T10:38:23;100803.06;;;17.23;35.57
30724;BME280;17473;52.286;20.930;2023-02-16T10:41:29;100787.22;;;17.34;35.90
30724;BME280;17473;52.286;20.930;2023-02-16T10:44:20;100787.03;;;17.20;35.95
30724;BME280;17473;52.286;20.930;2023-02-16T10:47:00;100787.78;;;17.10;35.48
30724;BME280;17473;52.286;20.930;2023-02-16T10:49:31;100783.84;;;16.86;36.12
30724;BME280;17473;52.286;20.930;2023-02-16T10:52:03;100786.38;;;16.77;36.40
30724;BME280;17473;52.286;20.930;2023-02-16T10:54:31;100770.56;;;16.87;36.37
30724;BME280;17473;52.286;20.930;2023-02-16T10:57:10;100766.03;;;16.82;36.26
30724;BME280;17473;52.286;20.930;2023-02-16T10:59:45;100762.88;;;15.94;37.55
30724;BME280;17473;52.286;20.930;2023-02-16T11:04:57;100762.88;;;16.48;37.47
30724;BME280;17473;52.286;20.930;2023-02-16T11:07:27;100757.94;;;16.17;37.50
30724;BME280;17473;52.286;20.930;2023-02-16T11:09:58;100762.25;;;15.63;38.82
30724;BME280;17473;52.286;20.930;2023-02-16T11:12:35;100766.31;;;15.88;38.44
30724;BME280;17473;52.286;20.930;2023-02-16T11:18:01;100759.13;;;15.84;38.52
30724;BME280;17473;52.286;20.930;2023-02-16T11:31:37;100752.63;;;16.19;38.51
30724;BME280;17473;52.286;20.930;2023-02-16T11:40:23;100750.75;;;16.11;38.84
30724;BME280;17473;52.286;20.930;2023-02-16T11:42:55;100752.31;;;16.00;38.82
30724;BME280;17473;52.286;20.930;2023-02-16T11:45:31;100746.44;;;16.20;38.90
30724;BME280;17473;52.286;20.930;2023-02-16T11:48:29;100757.72;;;16.05;39.23
30724;BME280;17473;52.286;20.930;2023-02-16T11:51:06;100743.13;;;16.93;38.15
30724;BME280;17473;52.286;20.930;2023-02-16T11:53:38;100743.81;;;17.53;38.10
30724;BME280;17473;52.286;20.930;2023-02-16T11:56:24;100735.25;;;17.87;38.14
30724;BME280;17473;52.286;20.930;2023-02-16T11:59:19;100736.22;;;17.94;37.14
30724;BME280;17473;52.286;20.930;2023-02-16T12:14:05;100733.84;;;18.26;37.28
30724;BME280;17473;52.286;20.930;2023-02-16T12:16:58;100723.03;;;18.11;36.66
30724;BME280;17473;52.286;20.930;2023-02-16T12:19:41;100731.00;;;18.05;37.50
30724;BME280;17473;52.286;20.930;2023-02-16T12:22:39;100727.38;;;17.96;37.32
30724;BME280;17473;52.286;20.930;2023-02-16T12:25:38;100718.50;;;18.02;37.63
30724;BME280;17473;52.286;20.930;2023-02-16T12:28:29;100720.38;;;18.14;37.56
30724;BME280;17473;52.286;20.930;2023-02-16T12:31:37;100728.44;;;18.20;37.03
30724;BME280;17473;52.286;20.930;2023-02-16T12:43:45;100720.06;;;17.78;37.48
30724;BME280;17473;52.286;20.930;2023-02-16T12:46:26;100709.34;;;17.77;37.98
30724;BME280;17473;52.286;20.930;2023-02-16T12:52:42;100708.09;;;17.41;37.75
30724;BME280;17473;52.286;20.930;2023-02-16T13:01:09;100713.09;;;17.13;38.54
30724;BME280;17473;52.286;20.930;2023-02-16T13:06:58;100696.44;;;17.32;38.53
30724;BME280;17473;52.286;20.930;2023-02-16T13:15:33;100699.69;;;17.07;39.34
30724;BME280;17473;52.286;20.930;2023-02-16T13:18:15;100706.81;;;17.08;38.88
30724;BME280;17473;52.286;20.930;2023-02-16T13:20:51;100684.19;;;16.76;39.30
30724;BME280;17473;52.286;20.930;2023-02-16T13:46:02;100675.25;;;14.68;43.40
30724;BME280;17473;52.286;20.930;2023-02-16T13:48:46;100688.25;;;14.56;43.80
30724;BME280;17473;52.286;20.930;2023-02-16T13:51:21;100680.75;;;14.39;44.07
30724;BME280;17473;52.286;20.930;2023-02-16T13:54:00;100676.94;;;14.27;44.31
30724;BME280;17473;52.286;20.930;2023-02-16T14:01:50;100674.09;;;13.47;46.52
30724;BME280;17473;52.286;20.930;2023-02-16T14:09:48;100685.78;;;12.91;48.39
30724;BME280;17473;52.286;20.930;2023-02-16T14:12:44;100681.59;;;12.69;49.06
30724;BME280;17473;52.286;20.930;2023-02-16T14:15:19;100678.63;;;12.58;49.53
30724;BME280;17473;52.286;20.930;2023-02-16T14:17:46;100686.41;;;12.52;49.86
30724;BME280;17473;52.286;20.930;2023-02-16T14:22:55;100675.69;;;12.20;51.06
30724;BME280;17473;52.286;20.930;2023-02-16T14:25:32;100684.25;;;12.11;51.46
30724;BME280;17473;52.286;20.930;2023-02-16T14:31:17;100677.47;;;11.94;52.09
30724;BME280;17473;52.286;20.930;2023-02-16T14:34:19;100680.66;;;11.83;52.57
30724;BME280;17473;52.286;20.930;2023-02-16T14:39:46;100687.13;;;11.93;52.31
30724;BME280;17473;52.286;20.930;2023-02-16T14:42:34;100696.09;;;11.97;52.61
30724;BME280;17473;52.286;20.930;2023-02-16T14:45:31;100686.00;;;11.59;53.71
30724;BME280;17473;52.286;20.930;2023-02-16T14:54:41;100689.00;;;11.44;54.81
30724;BME280;17473;52.286;20.930;2023-02-16T14:57:51;100685.13;;;11.33;54.98
30724;BME280;17473;52.286;20.930;2023-02-16T15:00:45;100682.84;;;11.43;54.85
30724;BME280;17473;52.286;20.930;2023-02-16T15:03:23;100672.78;;;11.33;55.08
30724;BME280;17473;52.286;20.930;2023-02-16T15:06:00;100672.28;;;11.19;55.52
30724;BME280;17473;52.286;20.930;2023-02-16T15:08:35;100675.28;;;11.04;56.33
30724;BME280;17473;52.286;20.930;2023-02-16T15:11:15;100683.66;;;10.92;56.78
30724;BME280;17473;52.286;20.930;2023-02-16T15:13:46;100665.56;;;10.79;57.35
30724;BME280;17473;52.286;20.930;2023-02-16T15:16:20;100675.16;;;10.77;57.30
30724;BME280;17473;52.286;20.930;2023-02-16T15:18:53;100677.69;;;10.98;56.75
30724;BME280;17473;52.286;20.930;2023-02-16T15:21:24;100675.03;;;10.74;57.40
30724;BME280;17473;52.286;20.930;2023-02-16T15:23:59;100670.97;;;10.59;58.25
30724;BME280;17473;52.286;20.930;2023-02-16T15:26:30;100675.91;;;10.50;58.60
30724;BME280;17473;52.286;20.930;2023-02-16T15:29:24;100676.53;;;10.43;58.98
30724;BME280;17473;52.286;20.930;2023-02-16T15:31:53;100682.50;;;10.39;59.15
30724;BME280;17473;52.286;20.930;2023-02-16T15:34:33;100673.94;;;10.23;59.59
30724;BME280;17473;52.286;20.930;2023-02-16T15:37:27;100669.38;;;10.19;60.00
30724;BME280;17473;52.286;20.930;2023-02-16T15:39:54;100676.72;;;10.05;60.44
30724;BME280;17473;52.286;20.930;2023-02-16T15:42:43;100671.03;;;9.94;61.05
30724;BME280;17473;52.286;20.930;2023-02-16T15:45:31;100665.63;;;9.91;61.33
30724;BME280;17473;52.286;20.930;2023-02-16T15:48:35;100665.19;;;9.80;61.99
30724;BME280;17473;52.286;20.930;2023-02-16T15:51:35;100669.56;;;9.80;62.01
30724;BME280;17473;52.286;20.930;2023-02-16T15:54:30;100662.81;;;9.65;62.73
30724;BME280;17473;52.286;20.930;2023-02-16T15:57:00;100665.53;;;9.67;62.80
30724;BME280;17473;52.286;20.930;2023-02-16T15:59:53;100653.03;;;9.63;62.80